Time;durP1;ratioP1;P1;durP2;ratioP2;P2;SDS_P1;SDS_P2;PMS_P1;PMS_P2;Temp;Humidity;BMP_temperature;BMP_pressure;BME280_temperature;BME280_humidity;BME280_pressure;Samples;Min_cycle;Max_cycle;Signal;HPM_P1;HPM_P2
2021/10/27 00:00:45;;;;;;;15.32;10.50;;;;;;;;;;5094425;28;20036;-79
2021/10/27 00:03:11;;;;;;;17.48;10.75;;;;;;;;;;5094475;28;20046;-80
2021/10/27 00:05:38;;;;;;;37.30;22.30;;;;;;;;;;5093218;28;20451;-80
2021/10/27 00:08:07;;;;;;;21.20;11.82;;;;;;;;;;5094418;28;20508;-78
2021/10/27 00:10:33;;;;;;;12.48;9.00;;;;;;;;;;5093035;28;20035;-79
2021/10/27 00:12:59;;;;;;;11.10;8.00;;;;;;;;;;5094394;28;20024;-81
2021/10/27 00:15:25;;;;;;;18.33;12.10;;;;;;;;;;5094211;28;20058;-78
2021/10/27 00:17:52;;;;;;;12.43;9.82;;;;;;;;;;5094120;28;20052;-78
2021/10/27 00:20:18;;;;;;;15.07;9.60;;;;;;;;;;5093169;28;20051;-79
2021/10/27 00:22:44;;;;;;;19.45;12.07;;;;;;;;;;5094189;28;20078;-81
2021/10/27 00:25:11;;;;;;;16.00;10.70;;;;;;;;;;5094063;28;20020;-80
2021/10/27 00:27:37;;;;;;;13.35;9.63;;;;;;;;;;5094058;28;20020;-79
2021/10/27 00:30:04;;;;;;;17.52;11.88;;;;;;;;;;5093941;28;20036;-79
2021/10/27 00:32:32;;;;;;;11.80;8.27;;;;;;;;;;5093942;28;20099;-78
2021/10/27 00:35:00;;;;;;;13.50;9.65;;;;;;;;;;5094077;28;20085;-78
2021/10/27 00:37:27;;;;;;;10.98;7.30;;;;;;;;;;5093870;28;20103;-79
2021/10/27 00:39:55;;;;;;;9.48;7.93;;;;;;;;;;5093855;28;20020;-79
2021/10/27 00:42:22;;;;;;;9.48;7.60;;;;;;;;;;5093866;28;20070;-81
2021/10/27 00:44:48;;;;;;;11.90;7.40;;;;;;;;;;5093828;28;20024;-80
2021/10/27 00:47:16;;;;;;;13.15;7.55;;;;;;;;;;5093914;28;20511;-78
2021/10/27 00:49:44;;;;;;;15.07;9.35;;;;;;;;;;5093587;28;20100;-79
2021/10/27 00:52:12;;;;;;;12.98;8.60;;;;;;;;;;5092489;28;20028;-79
2021/10/27 00:54:45;;;;;;;11.10;8.63;;;;;;;;;;5093795;28;20112;-79
2021/10/27 00:57:12;;;;;;;12.32;9.05;;;;;;;;;;5093807;28;20028;-79
2021/10/27 00:59:42;;;;;;;13.65;8.98;;;;;;;;;;5093895;28;20028;-84
2021/10/27 01:02:09;;;;;;;11.00;8.13;;;;;;;;;;5092591;28;20442;-81
2021/10/27 01:04:36;;;;;;;14.73;10.70;;;;;;;;;;5093723;28;20020;-82
2021/10/27 01:07:03;;;;;;;12.90;8.95;;;;;;;;;;5093746;28;20024;-83
2021/10/27 01:09:29;;;;;;;21.63;12.98;;;;;;;;;;5093709;28;20062;-81
2021/10/27 01:11:56;;;;;;;15.00;10.25;;;;;;;;;;5093718;28;20095;-82
2021/10/27 01:14:22;;;;;;;9.35;6.65;;;;;;;;;;5093685;28;20031;-81
2021/10/27 01:16:50;;;;;;;9.65;5.63;;;;;;;;;;5093476;28;20398;-83
2021/10/27 01:19:17;;;;;;;10.27;6.68;;;;;;;;;;5093385;28;20095;-80
2021/10/27 01:21:44;;;;;;;12.38;10.02;;;;;;;;;;5092246;28;20031;-82
2021/10/27 01:24:10;;;;;;;8.85;6.50;;;;;;;;;;5093384;28;20020;-83
2021/10/27 01:26:37;;;;;;;8.07;6.18;;;;;;;;;;5093351;28;20016;-80
2021/10/27 01:29:03;;;;;;;8.00;6.35;;;;;;;;;;5093501;28;20451;-80
2021/10/27 01:31:29;;;;;;;10.93;7.25;;;;;;;;;;5094016;28;20051;-82
2021/10/27 01:33:55;;;;;;;8.73;6.63;;;;;;;;;;5097400;28;20032;-82
2021/10/27 01:36:29;;;;;;;10.82;6.70;;;;;;;;;;5097371;28;20032;-80
2021/10/27 01:39:19;;;;;;;7.90;6.33;;;;;;;;;;5097639;28;20024;-83
2021/10/27 01:42:14;;;;;;;8.27;5.80;;;;;;;;;;5097470;28;20487;-81
2021/10/27 01:45:29;;;;;;;;;;;;;;;;;;;;;
2021/10/27 01:47:55;;;;;;;;;;;;;;;;;;;;;
2021/10/27 01:50:49;;;;;;;;;;;;;;;;;;;;;
2021/10/27 01:53:23;;;;;;;18.83;12.57;;;;;;;;;;5097175;28;20065;-83
2021/10/27 01:55:49;;;;;;;13.27;9.37;;;;;;;;;;5097057;28;20055;-82
2021/10/27 01:58:16;;;;;;;11.80;7.72;;;;;;;;;;5096925;28;20463;-80
2021/10/27 02:00:42;;;;;;;12.18;6.95;;;;;;;;;;5095728;28;20123;-82
2021/10/27 02:03:08;;;;;;;9.13;6.32;;;;;;;;;;5096918;28;20099;-82
2021/10/27 02:05:34;;;;;;;7.10;5.35;;;;;;;;;;5096841;28;20020;-80
2021/10/27 02:08:01;;;;;;;8.77;5.53;;;;;;;;;;5095389;28;20028;-82
2021/10/27 02:10:27;;;;;;;9.48;6.97;;;;;;;;;;5095623;28;20020;-82
2021/10/27 02:12:53;;;;;;;7.60;5.90;;;;;;;;;;5097081;28;20113;-84
2021/10/27 02:15:20;;;;;;;12.05;7.60;;;;;;;;;;5095529;28;20028;-83
2021/10/27 02:17:46;;;;;;;14.27;10.15;;;;;;;;;;5096760;28;20103;-81
2021/10/27 02:20:15;;;;;;;11.68;9.25;;;;;;;;;;5096508;28;20044;-82
2021/10/27 02:22:43;;;;;;;9.27;7.43;;;;;;;;;;5096465;28;20058;-80
2021/10/27 02:25:09;;;;;;;9.50;6.95;;;;;;;;;;5096586;28;20101;-83
2021/10/27 02:27:36;;;;;;;8.98;6.25;;;;;;;;;;5095047;28;20028;-81
2021/10/27 02:30:02;;;;;;;7.65;5.65;;;;;;;;;;5095190;28;20109;-80
2021/10/27 02:32:28;;;;;;;7.68;6.03;;;;;;;;;;5095081;28;20020;-79
2021/10/27 02:34:54;;;;;;;8.43;6.30;;;;;;;;;;5096382;28;20020;-81
2021/10/27 02:37:20;;;;;;;8.38;5.88;;;;;;;;;;5096406;28;20430;-82
2021/10/27 02:39:47;;;;;;;9.68;6.10;;;;;;;;;;5096233;28;20039;-81
2021/10/27 02:42:13;;;;;;;11.75;7.97;;;;;;;;;;5094836;28;20020;-82
2021/10/27 02:44:39;;;;;;;10.70;7.65;;;;;;;;;;5095269;28;20042;-83
2021/10/27 02:47:05;;;;;;;13.35;7.22;;;;;;;;;;5095991;28;20017;-80
2021/10/27 02:49:31;;;;;;;12.27;7.55;;;;;;;;;;5096010;28;20024;-79
2021/10/27 02:51:57;;;;;;;9.55;6.55;;;;;;;;;;5094701;28;20379;-79
2021/10/27 02:54:23;;;;;;;8.50;6.32;;;;;;;;;;5096004;28;20059;-82
2021/10/27 02:56:50;;;;;;;7.75;5.75;;;;;;;;;;5095797;28;20054;-83
2021/10/27 02:59:16;;;;;;;6.93;5.18;;;;;;;;;;5094727;28;20016;-82
2021/10/27 03:01:42;;;;;;;6.63;4.97;;;;;;;;;;5095784;28;20103;-81
2021/10/27 03:04:12;;;;;;;10.18;5.85;;;;;;;;;;5094616;28;20151;-82
2021/10/27 03:06:39;;;;;;;9.25;6.38;;;;;;;;;;5095732;28;20020;-84
2021/10/27 03:09:05;;;;;;;10.05;7.30;;;;;;;;;;5095863;28;20054;-80
2021/10/27 03:11:32;;;;;;;7.13;5.28;;;;;;;;;;5095646;28;20109;-81
2021/10/27 03:14:00;;;;;;;7.40;5.75;;;;;;;;;;5095587;28;20483;-80
2021/10/27 03:16:29;;;;;;;9.40;6.38;;;;;;;;;;5095681;28;20028;-81
2021/10/27 03:18:58;;;;;;;11.10;6.47;;;;;;;;;;5095548;28;20073;-81
2021/10/27 03:21:24;;;;;;;8.70;5.95;;;;;;;;;;5094205;28;20055;-85
2021/10/27 03:23:50;;;;;;;13.27;7.53;;;;;;;;;;5095625;28;20069;-81
2021/10/27 03:26:19;;;;;;;23.67;7.90;;;;;;;;;;5095517;28;20039;-81
2021/10/27 03:28:45;;;;;;;10.27;7.15;;;;;;;;;;5095179;28;20024;-79
2021/10/27 03:31:11;;;;;;;10.45;7.90;;;;;;;;;;5093795;28;20016;-83
2021/10/27 03:33:38;;;;;;;14.18;9.18;;;;;;;;;;5095281;28;20020;-83
2021/10/27 03:36:04;;;;;;;12.43;9.18;;;;;;;;;;5093912;28;20027;-82
2021/10/27 03:38:31;;;;;;;16.27;10.50;;;;;;;;;;5095221;28;20020;-80
2021/10/27 03:40:58;;;;;;;15.07;10.27;;;;;;;;;;5095130;28;20099;-82
2021/10/27 03:43:24;;;;;;;11.45;8.13;;;;;;;;;;5094950;28;20095;-81
2021/10/27 03:45:50;;;;;;;12.88;8.95;;;;;;;;;;5095281;28;20559;-84
2021/10/27 03:48:16;;;;;;;11.85;8.77;;;;;;;;;;5095037;28;20051;-80
2021/10/27 03:50:42;;;;;;;14.80;8.95;;;;;;;;;;5095007;28;20020;-82
2021/10/27 03:53:26;;;;;;;12.77;8.95;;;;;;;;;;5094867;28;20028;-80
2021/10/27 03:55:54;;;;;;;12.07;7.95;;;;;;;;;;5093553;28;20032;-81
2021/10/27 03:58:33;;;;;;;;;;;;;;;;;;;;;
2021/10/27 04:01:02;;;;;;;10.63;8.45;;;;;;;;;;5094977;28;20020;-81
2021/10/27 04:03:29;;;;;;;10.55;9.43;;;;;;;;;;5093419;28;20028;-83
2021/10/27 04:05:57;;;;;;;11.73;8.73;;;;;;;;;;5094624;28;20379;-82
2021/10/27 04:08:23;;;;;;;11.68;8.23;;;;;;;;;;5094520;28;20533;-79
2021/10/27 04:10:50;;;;;;;14.48;8.48;;;;;;;;;;5094416;28;20039;-82
2021/10/27 04:13:20;;;;;;;13.23;10.40;;;;;;;;;;5094385;28;20024;-79
2021/10/27 04:15:46;;;;;;;15.80;10.00;;;;;;;;;;5093092;28;20503;-80
2021/10/27 04:18:12;;;;;;;20.48;12.05;;;;;;;;;;5094330;28;20056;-83
2021/10/27 04:20:39;;;;;;;20.83;11.63;;;;;;;;;;5094030;28;20518;-82
2021/10/27 04:23:07;;;;;;;14.45;10.35;;;;;;;;;;5093027;28;20494;-80
2021/10/27 04:25:33;;;;;;;21.48;13.45;;;;;;;;;;5092920;28;20032;-80
2021/10/27 04:27:59;;;;;;;30.63;17.92;;;;;;;;;;5094230;28;20463;-80
2021/10/27 04:30:26;;;;;;;31.48;19.55;;;;;;;;;;5094391;28;20028;-79
2021/10/27 04:32:52;;;;;;;25.67;15.23;;;;;;;;;;5094201;28;20024;-83
2021/10/27 04:35:19;;;;;;;16.83;11.40;;;;;;;;;;5093348;28;20457;-82
2021/10/27 04:37:45;;;;;;;15.15;12.38;;;;;;;;;;5093250;28;20024;-84
2021/10/27 04:40:16;;;;;;;17.40;14.43;;;;;;;;;;5093206;28;20024;-83
2021/10/27 04:42:42;;;;;;;17.60;12.77;;;;;;;;;;5093347;28;20077;-84
2021/10/27 04:45:19;;;;;;;;;;;;;;;;;;;;;
2021/10/27 04:47:46;;;;;;;16.25;12.52;;;;;;;;;;5094311;28;20463;-83
2021/10/27 04:50:12;;;;;;;20.20;13.18;;;;;;;;;;5094221;28;20034;-82
2021/10/27 04:52:38;;;;;;;13.27;8.77;;;;;;;;;;5094028;28;20501;-83
2021/10/27 04:55:15;;;;;;;;;;;;;;;;;;;;;
2021/10/27 04:57:41;;;;;;;12.77;9.55;;;;;;;;;;5094103;28;20398;-80
2021/10/27 05:00:07;;;;;;;13.50;9.05;;;;;;;;;;5093913;28;20035;-81
2021/10/27 05:02:41;;;;;;;15.85;10.63;;;;;;;;;;5093782;28;20103;-79
2021/10/27 05:05:18;;;;;;;11.95;9.93;;;;;;;;;;5094082;28;20031;-80
2021/10/27 05:07:46;;;;;;;33.40;21.90;;;;;;;;;;5092945;28;20107;-82
2021/10/27 05:10:30;;;;;;;;;;;;;;;;;;;;;
2021/10/27 05:15:55;;;;;;;50.50;33.25;;;;;;;;;;5028889;28;20503;-82
2021/10/27 05:18:23;;;;;;;39.38;27.27;;;;;;;;;;5095941;28;20047;-82
2021/10/27 05:21:16;;;;;;;39.78;27.90;;;;;;;;;;5092859;28;20127;-79
2021/10/27 05:23:47;;;;;;;27.08;17.85;;;;;;;;;;5092978;28;20407;-81
2021/10/27 05:26:13;;;;;;;44.38;27.73;;;;;;;;;;5091833;28;20048;-79
2021/10/27 05:28:40;;;;;;;31.15;24.13;;;;;;;;;;5092738;28;20024;-77
2021/10/27 05:31:06;;;;;;;35.90;28.45;;;;;;;;;;5092985;28;20093;-79
2021/10/27 05:33:37;;;;;;;70.72;43.10;;;;;;;;;;5091686;28;20024;-76
2021/10/27 05:36:41;;;;;;;74.70;45.45;;;;;;;;;;5093248;28;20032;-81
2021/10/27 05:46:02;;;;;;;52.92;30.15;;;;;;;;;;4983135;28;20525;-79
2021/10/27 05:51:38;;;;;;;51.15;28.67;;;;;;;;;;4969829;28;20478;-81
2021/10/27 05:56:59;;;;;;;40.35;25.67;;;;;;;;;;4969753;28;20458;-83
2021/10/27 05:59:25;;;;;;;43.47;28.00;;;;;;;;;;4980447;28;20050;-75
2021/10/27 06:01:51;;;;;;;41.10;26.45;;;;;;;;;;5009488;28;20037;-80
2021/10/27 06:04:18;;;;;;;46.67;33.40;;;;;;;;;;5071207;28;20071;-78
2021/10/27 06:06:45;;;;;;;64.05;42.85;;;;;;;;;;5069481;28;20454;-75
2021/10/27 06:09:15;;;;;;;66.55;44.30;;;;;;;;;;5073806;28;20020;-79
2021/10/27 06:11:42;;;;;;;67.15;46.63;;;;;;;;;;5071166;28;20020;-76
2021/10/27 06:14:09;;;;;;;117.03;69.68;;;;;;;;;;5076562;28;20032;-76
2021/10/27 06:16:35;;;;;;;185.02;101.72;;;;;;;;;;5077818;28;20025;-80
2021/10/27 06:19:01;;;;;;;47.13;31.45;;;;;;;;;;5083806;28;20040;-78
2021/10/27 06:21:27;;;;;;;63.67;30.63;;;;;;;;;;5080030;28;20357;-84
2021/10/27 06:23:53;;;;;;;42.80;29.08;;;;;;;;;;5073887;28;20025;-81
2021/10/27 06:26:21;;;;;;;136.02;83.93;;;;;;;;;;5079743;28;20095;-83
2021/10/27 06:29:05;;;;;;;168.40;106.57;;;;;;;;;;5082299;28;20428;-81
2021/10/27 06:31:40;;;;;;;131.73;78.47;;;;;;;;;;5082637;28;20017;-83
2021/10/27 06:34:28;;;;;;;;;;;;;;;;;;;;;
2021/10/27 06:48:28;;;;;;;68.90;38.53;;;;;;;;;;5084099;28;20044;-82
2021/10/27 06:50:54;;;;;;;51.45;30.52;;;;;;;;;;5081104;28;20744;-81
2021/10/27 06:53:30;;;;;;;;;;;;;;;;;;;;;
2021/10/27 07:05:54;;;;;;;27.83;20.13;;;;;;;;;;5073113;28;20035;-81
2021/10/27 07:16:47;;;;;;;13.63;12.00;;;;;;;;;;5093674;28;20079;-81
2021/10/27 07:19:13;;;;;;;13.93;11.13;;;;;;;;;;5093587;28;20028;-85
2021/10/27 07:21:45;;;;;;;15.23;10.93;;;;;;;;;;5094059;28;20036;-81
2021/10/27 07:24:13;;;;;;;11.82;9.18;;;;;;;;;;5093979;28;20535;-80
2021/10/27 07:26:49;;;;;;;;;;;;;;;;;;;;;
2021/10/27 07:34:57;;;;;;;15.23;10.35;;;;;;;;;;4951066;28;20569;-82
2021/10/27 07:43:04;;;;;;;;;;;;;;;;;;5082920;28;20030;-81
2021/10/27 07:45:49;;;;;;;12.88;9.45;;;;;;;;;;5083338;28;20378;-80
2021/10/27 07:48:17;;;;;;;12.73;9.15;;;;;;;;;;5082926;28;20066;-81
2021/10/27 07:50:44;;;;;;;13.35;10.45;;;;;;;;;;5083929;28;20119;-66
2021/10/27 07:53:13;;;;;;;13.88;9.48;;;;;;;;;;5086453;28;20029;-81
2021/10/27 07:55:41;;;;;;;13.50;9.88;;;;;;;;;;5092293;28;20115;-81
2021/10/27 07:58:07;;;;;;;12.27;9.38;;;;;;;;;;5093157;28;20536;-79
2021/10/27 08:00:33;;;;;;;13.40;9.45;;;;;;;;;;5093477;28;20031;-79
2021/10/27 08:05:44;;;;;;;14.82;10.48;;;;;;;;;;5093464;28;20074;-85
2021/10/27 08:08:29;;;;;;;14.13;11.15;;;;;;;;;;5093667;28;20027;-81
2021/10/27 08:10:55;;;;;;;13.23;10.80;;;;;;;;;;5083981;28;20119;-81
2021/10/27 08:13:22;;;;;;;15.40;9.75;;;;;;;;;;5072926;28;20098;-83
2021/10/27 08:15:51;;;;;;;16.88;10.98;;;;;;;;;;5080999;28;20030;-81
2021/10/27 08:18:17;;;;;;;15.40;10.27;;;;;;;;;;5091742;28;20455;-83
2021/10/27 08:20:47;;;;;;;14.35;10.55;;;;;;;;;;5092199;28;20048;-79
2021/10/27 08:23:15;;;;;;;17.13;11.57;;;;;;;;;;5089817;28;20471;-83
2021/10/27 08:28:11;;;;;;;15.80;11.93;;;;;;;;;;5092629;28;20047;-80
2021/10/27 08:33:08;;;;;;;15.43;10.80;;;;;;;;;;5073378;28;20028;-82
2021/10/27 08:35:35;;;;;;;22.33;12.90;;;;;;;;;;5075187;28;20016;-80
2021/10/27 08:38:14;;;;;;;17.95;11.27;;;;;;;;;;5074924;28;20016;-83
2021/10/27 08:40:47;;;;;;;24.38;16.23;;;;;;;;;;5072198;28;20027;-84
2021/10/27 08:52:09;;;;;;;13.73;11.25;;;;;;;;;;5019090;28;20109;-82
2021/10/27 08:54:46;;;;;;;17.00;12.85;;;;;;;;;;5030255;28;20079;-82
2021/10/27 08:57:17;;;;;;;15.70;11.77;;;;;;;;;;5043128;28;20094;-77
2021/10/27 08:59:54;;;;;;;14.40;11.70;;;;;;;;;;5087713;28;20020;-82
2021/10/27 09:02:40;;;;;;;;;;;;;;;;;;;;;
2021/10/27 10:06:05;;;;;;;9.48;7.07;;;;;;;;;;5095966;28;20038;-81
2021/10/27 10:08:32;;;;;;;7.95;7.13;;;;;;;;;;5094050;28;20054;-84
2021/10/27 10:10:58;;;;;;;7.38;6.22;;;;;;;;;;5094061;28;20059;-81
2021/10/27 10:13:32;;;;;;;7.00;5.85;;;;;;;;;;5099100;28;20032;-82
2021/10/27 10:15:58;;;;;;;7.43;6.18;;;;;;;;;;5091938;28;20095;-66
2021/10/27 10:18:27;;;;;;;9.43;7.00;;;;;;;;;;5095193;28;20028;-84
2021/10/27 10:20:57;;;;;;;7.63;6.13;;;;;;;;;;5094801;28;20102;-84
2021/10/27 10:23:24;;;;;;;9.30;6.38;;;;;;;;;;5096121;28;20024;-80
2021/10/27 10:26:09;;;;;;;8.75;6.85;;;;;;;;;;5089876;28;20032;-77
2021/10/27 10:28:42;;;;;;;9.30;7.45;;;;;;;;;;5087242;28;20031;-78
2021/10/27 10:31:09;;;;;;;8.55;6.50;;;;;;;;;;5096673;28;20486;-81
2021/10/27 10:33:36;;;;;;;7.90;7.03;;;;;;;;;;5108693;28;20585;-84
2021/10/27 10:36:09;;;;;;;8.18;7.25;;;;;;;;;;5077623;28;20071;-80
2021/10/27 11:38:57;;;;;;;8.38;7.35;;;;;;;;;;5080843;28;20046;-85
2021/10/27 11:47:56;;;;;;;10.32;6.53;;;;;;;;;;5084045;28;20483;-82
2021/10/27 11:50:30;;;;;;;10.75;7.43;;;;;;;;;;5076305;28;20059;-80
2021/10/27 11:52:56;;;;;;;10.63;6.85;;;;;;;;;;5082887;28;20432;-81
2021/10/27 11:55:23;;;;;;;10.30;7.93;;;;;;;;;;5087361;28;20020;-80
2021/10/27 11:57:58;;;;;;;16.15;10.30;;;;;;;;;;5082681;28;20027;-81
2021/10/27 12:00:39;;;;;;;11.05;7.47;;;;;;;;;;5081817;28;20029;-80
2021/10/27 12:03:09;;;;;;;12.18;7.03;;;;;;;;;;5090779;28;20020;-78
2021/10/27 12:05:42;;;;;;;10.65;7.18;;;;;;;;;;5086277;28;20491;-79
2021/10/27 12:08:24;;;;;;;8.27;6.47;;;;;;;;;;5083935;28;20032;-81
2021/10/27 12:16:28;;;;;;;6.93;6.03;;;;;;;;;;5082997;28;19958;-78
2021/10/27 12:18:58;;;;;;;6.47;5.15;;;;;;;;;;5091512;28;20024;-80
2021/10/27 12:21:26;;;;;;;7.05;6.35;;;;;;;;;;5093010;28;20067;-84
2021/10/27 12:23:52;;;;;;;10.38;6.32;;;;;;;;;;5089260;28;20039;-79
2021/10/27 12:26:20;;;;;;;10.32;7.05;;;;;;;;;;5083382;28;20444;-72
2021/10/27 12:28:50;;;;;;;7.07;5.30;;;;;;;;;;5082928;28;20028;-77
2021/10/27 12:31:18;;;;;;;9.70;7.57;;;;;;;;;;5087458;28;20016;-83
2021/10/27 12:33:45;;;;;;;9.50;7.90;;;;;;;;;;5085978;28;20027;-80
2021/10/27 12:36:12;;;;;;;6.03;5.43;;;;;;;;;;5082238;28;20020;-82
2021/10/27 12:38:43;;;;;;;11.15;6.75;;;;;;;;;;5091543;28;20387;-79
2021/10/27 12:41:13;;;;;;;9.43;6.75;;;;;;;;;;5091427;28;20032;-81
2021/10/27 12:43:42;;;;;;;9.57;6.97;;;;;;;;;;5088749;28;20017;-81
2021/10/27 12:46:18;;;;;;;7.82;6.30;;;;;;;;;;5092480;28;20505;-78
2021/10/27 12:48:45;;;;;;;7.38;6.40;;;;;;;;;;5108450;28;20105;-78
2021/10/27 12:51:11;;;;;;;10.02;6.10;;;;;;;;;;5089016;28;20027;-82
2021/10/27 12:53:42;;;;;;;9.15;5.70;;;;;;;;;;5080204;28;20043;-84
2021/10/27 12:56:17;;;;;;;8.73;6.45;;;;;;;;;;5074003;28;20671;-78
2021/10/27 12:58:56;;;;;;;8.75;6.35;;;;;;;;;;5077191;28;20063;-85
2021/10/27 13:30:52;;;;;;;11.33;8.10;;;;;;;;;;5096744;28;19911;-85
2021/10/27 13:33:20;;;;;;;14.90;8.48;;;;;;;;;;5096936;28;20028;-79
2021/10/27 13:35:49;;;;;;;9.25;7.47;;;;;;;;;;5091782;28;20070;-81
2021/10/27 13:38:17;;;;;;;12.68;7.20;;;;;;;;;;5085080;28;20028;-82
2021/10/27 13:40:45;;;;;;;6.40;5.70;;;;;;;;;;5089384;28;20027;-81
2021/10/27 14:07:49;;;;;;;9.60;8.30;;;;;;;;;;5096429;28;19999;-77
2021/10/27 14:10:25;;;;;;;19.08;13.68;;;;;;;;;;5080832;28;20385;-79
2021/10/27 14:12:56;;;;;;;14.25;10.02;;;;;;;;;;5091613;28;20429;-84
2021/10/27 15:20:44;;;;;;;20.38;14.02;;;;;;;;;;5094881;28;20066;-79
2021/10/27 15:29:02;;;;;;;19.42;16.02;;;;;;;;;;5054788;28;20032;-82
2021/10/27 15:31:43;;;;;;;21.40;17.27;;;;;;;;;;5095565;28;20032;-83
2021/10/27 15:42:34;;;;;;;23.90;16.65;;;;;;;;;;5095869;28;20059;-81
2021/10/27 15:53:01;;;;;;;23.38;17.42;;;;;;;;;;5074804;28;20071;-82
2021/10/27 15:55:27;;;;;;;21.80;17.38;;;;;;;;;;5075155;28;20009;-84
2021/10/27 15:57:54;;;;;;;23.38;17.70;;;;;;;;;;5075077;28;20024;-80
2021/10/27 16:00:23;;;;;;;20.08;15.98;;;;;;;;;;5081963;28;20043;-84
2021/10/27 16:03:21;;;;;;;;;;;;;;;;;;;;;
2021/10/27 16:08:49;;;;;;;22.42;16.42;;;;;;;;;;5088323;28;20137;-83
2021/10/27 16:11:23;;;;;;;19.70;17.02;;;;;;;;;;5079020;28;20119;-83
2021/10/27 16:13:49;;;;;;;17.93;14.07;;;;;;;;;;5091473;28;20131;-80
2021/10/27 16:16:17;;;;;;;20.98;16.23;;;;;;;;;;5093769;28;20265;-81
2021/10/27 16:18:44;;;;;;;22.38;16.60;;;;;;;;;;5079123;28;20573;-85
2021/10/27 16:21:10;;;;;;;18.55;14.82;;;;;;;;;;5073955;28;20098;-85
2021/10/27 16:23:37;;;;;;;19.25;14.80;;;;;;;;;;5073731;28;20488;-82
2021/10/27 16:26:08;;;;;;;18.95;14.05;;;;;;;;;;5073957;28;20036;-84
2021/10/27 16:28:34;;;;;;;20.73;15.90;;;;;;;;;;5084052;28;20103;-80
2021/10/27 16:31:00;;;;;;;24.10;16.20;;;;;;;;;;5093133;28;20457;-80
2021/10/27 16:33:29;;;;;;;22.70;16.27;;;;;;;;;;5094887;28;20062;-81
2021/10/27 16:35:55;;;;;;;19.15;15.23;;;;;;;;;;5072878;28;20056;-82
2021/10/27 16:38:21;;;;;;;19.83;16.65;;;;;;;;;;5082628;28;20028;-81
2021/10/27 16:40:48;;;;;;;20.60;17.77;;;;;;;;;;5093892;28;20383;-79
2021/10/27 16:43:27;;;;;;;;;;;;;;;;;;;;;
2021/10/27 16:46:16;;;;;;;24.67;16.73;;;;;;;;;;5082248;28;20024;-81
2021/10/27 16:49:04;;;;;;;;;;;;;;;;;;;;;
2021/10/27 16:51:32;;;;;;;25.95;18.80;;;;;;;;;;5073201;28;20031;-84
2021/10/27 16:54:01;;;;;;;24.55;17.40;;;;;;;;;;5075809;28;20412;-80
2021/10/27 16:56:31;;;;;;;22.05;16.58;;;;;;;;;;5087402;28;20100;-76
2021/10/27 16:58:57;;;;;;;16.90;13.73;;;;;;;;;;5072012;28;20058;-77
2021/10/27 17:01:27;;;;;;;18.33;13.65;;;;;;;;;;5073365;28;20024;-81
2021/10/27 17:04:01;;;;;;;19.20;14.00;;;;;;;;;;5083124;28;20027;-82
2021/10/27 17:06:43;;;;;;;;;;;;;;;;;;;;;
2021/10/27 17:09:09;;;;;;;27.63;20.75;;;;;;;;;;5093019;28;20023;-81
2021/10/27 17:11:36;;;;;;;23.88;20.15;;;;;;;;;;5091381;28;20050;-82
2021/10/27 17:14:02;;;;;;;24.73;22.05;;;;;;;;;;5083607;28;20090;-79
2021/10/27 17:16:32;;;;;;;40.85;32.08;;;;;;;;;;5087642;28;20111;-80
2021/10/27 17:18:59;;;;;;;55.40;42.20;;;;;;;;;;5093768;28;20036;-78
2021/10/27 17:21:25;;;;;;;83.70;65.90;;;;;;;;;;5093435;28;20109;-81
2021/10/27 17:24:01;;;;;;;52.45;41.67;;;;;;;;;;5086030;28;20473;-79
2021/10/27 17:26:28;;;;;;;42.40;33.50;;;;;;;;;;5086660;28;20032;-81
2021/10/27 17:28:54;;;;;;;43.45;35.63;;;;;;;;;;5085755;28;20463;-81
2021/10/27 17:31:25;;;;;;;31.08;25.75;;;;;;;;;;5074646;28;20024;-78
2021/10/27 17:33:54;;;;;;;41.92;30.45;;;;;;;;;;5073438;28;20032;-83
2021/10/27 17:36:23;;;;;;;47.00;35.92;;;;;;;;;;5093559;28;20027;-87
2021/10/27 17:38:49;;;;;;;49.95;42.03;;;;;;;;;;5093330;28;20039;-83
2021/10/27 17:41:20;;;;;;;45.95;36.97;;;;;;;;;;5093167;28;20024;-83
2021/10/27 17:43:47;;;;;;;55.90;42.67;;;;;;;;;;5093290;28;20020;-81
2021/10/27 17:46:14;;;;;;;40.50;31.52;;;;;;;;;;5098686;28;20077;-80
2021/10/27 17:51:34;;;;;;;92.05;65.53;;;;;;;;;;5073347;28;20106;-84
2021/10/27 17:59:31;;;;;;;79.35;56.08;;;;;;;;;;5092980;28;20387;-81
2021/10/27 18:01:58;;;;;;;80.40;63.95;;;;;;;;;;5092840;28;20035;-82
2021/10/27 18:04:24;;;;;;;65.78;51.05;;;;;;;;;;5093195;28;20031;-80
2021/10/27 18:06:52;;;;;;;58.78;46.10;;;;;;;;;;5093164;28;20099;-81
2021/10/27 18:09:18;;;;;;;46.85;38.75;;;;;;;;;;5093085;28;20020;-79
2021/10/27 18:11:47;;;;;;;64.50;47.92;;;;;;;;;;5092979;28;20029;-82
2021/10/27 18:14:19;;;;;;;53.95;40.53;;;;;;;;;;5094754;28;20016;-83
2021/10/27 18:16:51;;;;;;;48.78;38.75;;;;;;;;;;5096993;28;20045;-84
2021/10/27 18:38:01;;;;;;;47.67;40.05;;;;;;;;;;5096385;28;20391;-78
2021/10/27 18:40:46;;;;;;;33.88;28.67;;;;;;;;;;5094974;28;20043;-79
2021/10/27 18:46:08;;;;;;;32.33;25.93;;;;;;;;;;5087130;28;19904;-78
2021/10/27 18:48:36;;;;;;;34.90;27.98;;;;;;;;;;5096002;28;20483;-80
2021/10/27 18:51:06;;;;;;;32.30;25.65;;;;;;;;;;5096056;28;20109;-79
2021/10/27 18:53:43;;;;;;;28.52;23.38;;;;;;;;;;5095892;28;20039;-78
2021/10/27 19:12:41;;;;;;;32.50;26.00;;;;;;;;;;5095829;28;20594;-81
2021/10/27 19:15:17;;;;;;;31.60;25.73;;;;;;;;;;5094275;28;20032;-81
2021/10/27 19:17:44;;;;;;;28.20;23.67;;;;;;;;;;5095511;28;20022;-84
2021/10/27 19:20:10;;;;;;;34.47;28.92;;;;;;;;;;5095506;28;20048;-77
2021/10/27 19:22:38;;;;;;;37.35;29.75;;;;;;;;;;5095439;28;20100;-78
2021/10/27 19:25:58;;;;;;;40.35;31.08;;;;;;;;;;5094902;28;20024;-81
2021/10/27 19:28:09;;;;;;;62.30;46.55;;;;;;;;;;5089738;28;20029;-79
2021/10/27 19:30:46;;;;;;;26.55;20.35;;;;;;;;;;5095391;28;20103;-77
2021/10/27 20:49:34;;;;;;;32.47;25.45;;;;;;;;;;5094128;28;20039;-78
2021/10/27 20:54:28;;;;;;;32.22;25.92;;;;;;;;;;5093895;28;20382;-78
2021/10/27 20:56:59;;;;;;;30.67;24.13;;;;;;;;;;5094041;28;20016;-79
2021/10/27 21:12:13;;;;;;;25.92;21.95;;;;;;;;;;5093713;28;20028;-78
2021/10/27 21:13:02;;;;;;;40.90;28.13;;;;;;;;;;5093705;28;20035;-80
2021/10/27 21:15:28;;;;;;;25.35;20.63;;;;;;;;;;5093704;28;20020;-80
2021/10/27 21:17:56;;;;;;;25.88;22.55;;;;;;;;;;5093524;28;20095;-80
2021/10/27 21:20:22;;;;;;;24.42;19.95;;;;;;;;;;5093348;28;20046;-78
2021/10/27 21:22:50;;;;;;;28.05;22.95;;;;;;;;;;5093429;28;20025;-78
2021/10/27 21:25:20;;;;;;;25.90;20.63;;;;;;;;;;5093539;28;20391;-79
2021/10/27 21:43:19;;;;;;;24.40;19.13;;;;;;;;;;5093472;28;20160;-79
2021/10/27 21:45:45;;;;;;;24.42;19.42;;;;;;;;;;5093341;28;20078;-80
2021/10/27 21:48:12;;;;;;;22.00;18.65;;;;;;;;;;5093591;28;20021;-79
2021/10/27 21:50:39;;;;;;;23.27;18.50;;;;;;;;;;5096058;28;20024;-81
2021/10/27 21:53:05;;;;;;;21.17;16.98;;;;;;;;;;5097298;28;20024;-81
2021/10/27 21:55:33;;;;;;;22.38;17.80;;;;;;;;;;5097140;28;20027;-82
2021/10/27 21:58:00;;;;;;;23.73;19.17;;;;;;;;;;5097582;28;20383;-80
2021/10/27 22:00:28;;;;;;;26.35;21.50;;;;;;;;;;5097130;28;20024;-79
2021/10/27 22:02:55;;;;;;;26.52;21.70;;;;;;;;;;5097167;28;20024;-78
2021/10/27 22:05:21;;;;;;;27.90;22.85;;;;;;;;;;5097336;28;20020;-78
2021/10/27 22:07:47;;;;;;;27.52;22.38;;;;;;;;;;5097117;28;20483;-78
2021/10/27 22:10:13;;;;;;;27.40;21.90;;;;;;;;;;5096931;28;20016;-82
2021/10/27 22:12:39;;;;;;;33.95;26.05;;;;;;;;;;5096979;28;20046;-81
2021/10/27 22:15:06;;;;;;;33.63;25.92;;;;;;;;;;5096937;28;20020;-78
2021/10/27 22:17:32;;;;;;;24.50;20.50;;;;;;;;;;5096797;28;20390;-79
2021/10/27 22:19:58;;;;;;;28.27;21.25;;;;;;;;;;5096601;28;20060;-82
2021/10/27 22:22:24;;;;;;;26.50;20.25;;;;;;;;;;5097029;28;20380;-83
2021/10/27 22:24:51;;;;;;;26.85;21.00;;;;;;;;;;5096731;28;20510;-81
2021/10/27 22:27:17;;;;;;;29.10;21.60;;;;;;;;;;5096725;28;20024;-80
2021/10/27 22:29:43;;;;;;;26.48;21.42;;;;;;;;;;5096548;28;20024;-84
2021/10/27 22:32:09;;;;;;;27.95;21.02;;;;;;;;;;5096477;28;20432;-82
2021/10/27 22:34:35;;;;;;;25.27;20.75;;;;;;;;;;5096335;28;20020;-78
2021/10/27 22:37:04;;;;;;;24.00;20.08;;;;;;;;;;5096563;28;20459;-82
2021/10/27 22:39:32;;;;;;;26.73;21.10;;;;;;;;;;5096387;28;20035;-82
2021/10/27 22:41:58;;;;;;;25.55;19.70;;;;;;;;;;5096503;28;20025;-80
2021/10/27 22:44:25;;;;;;;27.95;21.17;;;;;;;;;;5096243;28;20081;-78
2021/10/27 22:46:51;;;;;;;25.27;20.50;;;;;;;;;;5096279;28;20078;-81
2021/10/27 22:49:17;;;;;;;57.60;39.17;;;;;;;;;;5096120;28;20471;-80
2021/10/27 22:51:47;;;;;;;34.05;27.67;;;;;;;;;;5096131;28;20068;-78
2021/10/27 22:54:13;;;;;;;33.80;25.80;;;;;;;;;;5096013;28;20024;-79
2021/10/27 22:56:39;;;;;;;30.90;23.13;;;;;;;;;;5096090;28;20086;-79
2021/10/27 22:59:08;;;;;;;27.95;21.90;;;;;;;;;;5095575;28;20028;-80
2021/10/27 23:01:42;;;;;;;21.95;19.52;;;;;;;;;;5094966;28;20031;-79
2021/10/27 23:07:02;;;;;;;25.92;19.02;;;;;;;;;;5095756;28;20028;-82
2021/10/27 23:44:41;;;;;;;25.05;19.40;;;;;;;;;;5095373;28;20040;-80
2021/10/27 23:47:07;;;;;;;25.13;18.95;;;;;;;;;;5095148;28;20471;-79
2021/10/27 23:49:37;;;;;;;21.63;17.98;;;;;;;;;;5094954;28;20028;-78
2021/10/27 23:52:09;;;;;;;23.40;18.65;;;;;;;;;;5093711;28;20070;-81